Terminal Aerodrome Forecast
Issued by NWS

Home | Current Version | Previous Version | Text Only | Print | Product List | Glossary Off
Versions: 1 2 3 4 5 6 7 8 9 10 11 12 13 14 15 16 17 18

000
FTUS43 KBIS 250822 AAA
TAFDIK
TAF AMD
KDIK 250822Z 2508/2606 27016KT P6SM SCT050 BKN100
     FM251100 27013KT P6SM BKN080
     FM251400 26015G24KT P6SM FEW250=

USA.gov is the U.S. government's official web portal to all federal, state and local government web resources and services.